createdAt,value
2022-11-03T00:00:13.926Z,17.58
2022-11-03T00:00:35.721Z,17.25
2022-11-03T00:00:57.527Z,16.50
2022-11-03T00:01:19.734Z,17.58
2022-11-03T00:01:45.772Z,20.65
2022-11-03T00:02:07.703Z,22.08
2022-11-03T00:02:29.986Z,17.98
2022-11-03T00:02:54.511Z,18.35
2022-11-03T00:03:16.669Z,20.35
2022-11-03T00:03:38.787Z,21.33
2022-11-03T00:04:00.931Z,23.15
2022-11-03T00:04:23.746Z,19.33
2022-11-03T00:04:45.879Z,19.13
2022-11-03T00:05:27.869Z,16.83
2022-11-03T00:06:05.353Z,17.35
2022-11-03T00:06:27.131Z,22.30
2022-11-03T00:06:53.259Z,17.30
2022-11-03T00:07:21.717Z,21.85
2022-11-03T00:07:43.838Z,19.58
2022-11-03T00:08:06.140Z,20.80
2022-11-03T00:08:28.267Z,20.83
2022-11-03T00:08:50.032Z,21.08
2022-11-03T00:09:13.123Z,20.83
2022-11-03T00:09:35.289Z,18.30
2022-11-03T00:09:57.420Z,19.33
2022-11-03T00:10:19.582Z,22.98
2022-11-03T00:10:41.777Z,22.10
2022-11-03T00:11:14.231Z,20.05
2022-11-03T00:11:37.587Z,18.52
2022-11-03T00:11:59.304Z,20.55
2022-11-03T00:12:21.425Z,20.33
2022-11-03T00:12:43.199Z,18.50
2022-11-03T00:13:05.670Z,17.50
2022-11-03T00:13:27.983Z,17.45
2022-11-03T00:13:50.170Z,18.88
2022-11-03T00:14:12.786Z,21.58
2022-11-03T00:14:34.532Z,21.00
2022-11-03T00:14:56.282Z,20.27
2022-11-03T00:15:18.372Z,20.17
2022-11-03T00:15:48.388Z,22.27
2022-11-03T00:16:11.912Z,20.50
2022-11-03T00:16:34.195Z,19.65
2022-11-03T00:16:56.287Z,18.58
2022-11-03T00:17:18.108Z,20.05
2022-11-03T00:17:40.319Z,19.05
2022-11-03T00:18:02.475Z,18.20
2022-11-03T00:18:24.429Z,19.45
2022-11-03T00:18:46.580Z,20.55
2022-11-03T00:19:09.176Z,17.08
2022-11-03T00:19:31.518Z,19.35
2022-11-03T00:19:53.238Z,19.08
2022-11-03T00:20:15.431Z,19.45
2022-11-03T00:20:37.532Z,20.08
2022-11-03T00:21:10.666Z,20.27
2022-11-03T00:21:33.067Z,21.40
2022-11-03T00:21:54.928Z,19.25
2022-11-03T00:22:17.091Z,19.70
2022-11-03T00:22:38.820Z,20.40
2022-11-03T00:23:00.941Z,24.23
2022-11-03T00:23:24.312Z,17.35
2022-11-03T00:23:46.970Z,19.25
2022-11-03T00:24:09.300Z,20.23
2022-11-03T00:24:31.054Z,21.90
2022-11-03T00:24:53.213Z,20.05
2022-11-03T00:25:15.373Z,22.73
2022-11-03T00:25:37.474Z,21.52
2022-11-03T00:26:19.049Z,20.08
2022-11-03T00:26:41.521Z,17.85
2022-11-03T00:27:03.394Z,20.67
2022-11-03T00:27:25.121Z,20.00
2022-11-03T00:27:46.925Z,20.00
2022-11-03T00:28:09.047Z,20.73
2022-11-03T00:28:32.351Z,18.50
2022-11-03T00:28:55.575Z,19.30
2022-11-03T00:29:17.764Z,23.10
2022-11-03T00:29:39.892Z,22.98
2022-11-03T00:30:02.016Z,20.98
2022-11-03T00:30:23.775Z,21.52
2022-11-03T00:30:45.490Z,20.77
2022-11-03T00:31:13.285Z,19.95
2022-11-03T00:31:36.544Z,22.20
2022-11-03T00:31:58.719Z,19.23
2022-11-03T00:32:20.914Z,20.42
2022-11-03T00:32:43.017Z,19.27
2022-11-03T00:33:05.357Z,18.73
2022-11-03T00:33:27.904Z,16.88
2022-11-03T00:33:50.307Z,17.70
2022-11-03T00:34:12.533Z,20.55
2022-11-03T00:34:34.722Z,22.52
2022-11-03T00:34:56.971Z,21.77
2022-11-03T00:35:18.698Z,22.52
2022-11-03T00:35:40.415Z,17.88
2022-11-03T00:36:03.036Z,20.23
2022-11-03T00:36:28.799Z,20.42
2022-11-03T00:36:50.947Z,15.82
2022-11-03T00:37:12.745Z,16.45
2022-11-03T00:37:34.881Z,22.40
2022-11-03T00:37:56.588Z,25.02
2022-11-03T00:38:18.759Z,20.75
2022-11-03T00:38:41.172Z,19.45
2022-11-03T00:39:04.253Z,19.70
2022-11-03T00:39:26.045Z,19.63
2022-11-03T00:39:48.140Z,17.38
2022-11-03T00:40:11.120Z,17.85
2022-11-03T00:40:32.857Z,19.88
2022-11-03T00:40:55.556Z,19.63
2022-11-03T00:41:18.373Z,20.30
2022-11-03T00:41:40.844Z,20.42
2022-11-03T00:42:02.729Z,19.73
2022-11-03T00:42:24.965Z,19.63
2022-11-03T00:42:47.132Z,20.88
2022-11-03T00:43:09.248Z,20.65
2022-11-03T00:43:32.482Z,21.60
2022-11-03T00:43:55.092Z,20.95
2022-11-03T00:44:17.218Z,20.55
2022-11-03T00:44:39.313Z,20.90
2022-11-03T00:45:01.440Z,18.67
2022-11-03T00:45:23.173Z,20.20
2022-11-03T00:45:45.291Z,21.88
2022-11-03T00:46:08.638Z,21.02
2022-11-03T00:46:30.798Z,21.25
2022-11-03T00:46:52.586Z,21.35
2022-11-03T00:47:14.355Z,23.00
2022-11-03T00:47:56.096Z,25.20
2022-11-03T00:48:30.941Z,21.05
2022-11-03T00:48:53.162Z,21.20
2022-11-03T00:49:15.339Z,20.38
2022-11-03T00:49:37.591Z,20.05
2022-11-03T00:49:59.797Z,22.83
2022-11-03T00:50:21.890Z,21.05
2022-11-03T00:50:43.661Z,20.05
2022-11-03T00:51:11.588Z,21.92
2022-11-03T00:51:35.082Z,20.40
2022-11-03T00:51:57.254Z,20.58
2022-11-03T00:52:19.353Z,20.50
2022-11-03T00:52:41.113Z,19.00
2022-11-03T00:53:03.332Z,19.60
2022-11-03T00:53:25.591Z,19.65
2022-11-03T00:53:57.357Z,20.45
2022-11-03T00:54:19.448Z,20.17
2022-11-03T00:54:45.241Z,19.95
2022-11-03T00:55:07.710Z,19.63
2022-11-03T00:55:29.836Z,20.63
2022-11-03T00:55:51.991Z,20.42
2022-11-03T00:56:19.714Z,18.75
2022-11-03T00:56:42.665Z,20.10
2022-11-03T00:57:04.820Z,19.52
2022-11-03T00:57:27.664Z,20.85
2022-11-03T00:57:52.808Z,19.38
2022-11-03T00:58:14.932Z,18.95
2022-11-03T00:58:37.142Z,21.88
2022-11-03T00:59:00.248Z,20.58
2022-11-03T00:59:22.339Z,19.98
2022-11-03T00:59:44.053Z,16.55
2022-11-03T01:00:06.884Z,19.15
2022-11-03T01:00:28.997Z,23.52
2022-11-03T01:00:51.230Z,19.20
2022-11-03T01:01:14.580Z,17.35
2022-11-03T01:01:43.981Z,17.92
2022-11-03T01:02:07.841Z,18.38
2022-11-03T01:02:30.187Z,18.15
2022-11-03T01:02:52.380Z,22.13
2022-11-03T01:03:14.503Z,19.88
2022-11-03T01:03:38.778Z,18.15
2022-11-03T01:04:19.864Z,21.15
2022-11-03T01:05:00.874Z,19.65
2022-11-03T01:05:41.502Z,18.90
2022-11-03T01:06:24.887Z,20.48
2022-11-03T01:06:50.930Z,18.40
2022-11-03T01:07:13.172Z,17.35
2022-11-03T01:07:34.916Z,16.77
2022-11-03T01:07:57.106Z,21.65
2022-11-03T01:08:20.431Z,19.98
2022-11-03T01:08:44.628Z,21.33
2022-11-03T01:09:06.912Z,20.98
2022-11-03T01:09:36.127Z,22.23
2022-11-03T01:09:57.847Z,20.17
2022-11-03T01:10:19.997Z,17.92
2022-11-03T01:11:02.041Z,18.90
2022-11-03T01:11:43.445Z,19.77
2022-11-03T01:12:14.933Z,20.73
2022-11-03T01:12:37.017Z,22.73
2022-11-03T01:12:58.732Z,18.65
2022-11-03T01:13:20.874Z,21.52
2022-11-03T01:13:42.661Z,21.05
2022-11-03T01:14:05.521Z,22.10
2022-11-03T01:14:29.508Z,19.67
2022-11-03T01:14:53.010Z,18.98
2022-11-03T01:15:14.963Z,18.35
2022-11-03T01:15:37.186Z,21.63
2022-11-03T01:15:59.361Z,23.48
2022-11-03T01:16:21.805Z,20.70
2022-11-03T01:16:44.291Z,20.45
2022-11-03T01:17:10.584Z,20.70
2022-11-03T01:17:32.697Z,18.52
2022-11-03T01:17:54.812Z,16.77
2022-11-03T01:18:17.037Z,17.67
2022-11-03T01:18:39.170Z,19.15
2022-11-03T01:19:01.199Z,22.75
2022-11-03T01:19:23.817Z,20.55
2022-11-03T01:19:46.236Z,19.02
2022-11-03T01:20:08.644Z,22.33
2022-11-03T01:20:30.364Z,20.05
2022-11-03T01:20:56.631Z,19.63
2022-11-03T01:21:19.184Z,22.33
2022-11-03T01:21:40.908Z,26.38
2022-11-03T01:22:06.446Z,23.85
2022-11-03T01:22:31.809Z,22.55
2022-11-03T01:22:53.959Z,21.60
2022-11-03T01:23:16.128Z,22.10
2022-11-03T01:23:38.420Z,21.52
2022-11-03T01:24:04.620Z,20.52
2022-11-03T01:24:26.837Z,26.00
2022-11-03T01:24:49.056Z,26.90
2022-11-03T01:25:11.185Z,21.70
2022-11-03T01:25:33.555Z,28.05
2022-11-03T01:25:55.273Z,28.83
2022-11-03T01:26:17.444Z,29.33
2022-11-03T01:26:39.214Z,29.30
2022-11-03T01:27:01.096Z,26.23
2022-11-03T01:27:23.455Z,25.13
2022-11-03T01:27:45.633Z,26.23
2022-11-03T01:28:07.771Z,28.40
2022-11-03T01:28:29.881Z,29.65
2022-11-03T01:28:51.986Z,31.65
2022-11-03T01:29:14.123Z,25.10
2022-11-03T01:29:36.340Z,24.42
2022-11-03T01:29:58.440Z,24.02
2022-11-03T01:30:20.534Z,27.45
2022-11-03T01:30:42.695Z,26.30
2022-11-03T01:31:05.509Z,23.42
2022-11-03T01:31:28.170Z,19.70
2022-11-03T01:31:50.440Z,21.17
2022-11-03T01:32:12.529Z,22.95
2022-11-03T01:32:34.322Z,23.23
2022-11-03T01:32:56.051Z,22.40
2022-11-03T01:33:18.151Z,20.95
2022-11-03T01:33:40.617Z,18.58
2022-11-03T01:34:02.763Z,23.10
2022-11-03T01:34:24.592Z,22.23
2022-11-03T01:34:46.820Z,22.13
2022-11-03T01:35:08.993Z,23.17
2022-11-03T01:35:31.262Z,26.48
2022-11-03T01:35:53.913Z,22.02
2022-11-03T01:36:16.622Z,24.25
2022-11-03T01:36:38.342Z,20.67
2022-11-03T01:37:00.321Z,18.58
2022-11-03T01:37:22.107Z,18.13
2022-11-03T01:37:43.835Z,19.02
2022-11-03T01:38:05.990Z,21.55
2022-11-03T01:38:31.038Z,23.70
2022-11-03T01:38:54.389Z,21.73
2022-11-03T01:39:17.464Z,21.50
2022-11-03T01:39:39.625Z,22.95
2022-11-03T01:40:01.781Z,21.80
2022-11-03T01:40:24.016Z,21.88
2022-11-03T01:40:46.174Z,22.10
2022-11-03T01:41:12.808Z,18.95
2022-11-03T01:41:34.580Z,18.05
2022-11-03T01:41:56.690Z,21.25
2022-11-03T01:42:18.457Z,21.05
2022-11-03T01:42:40.561Z,21.92
2022-11-03T01:43:18.916Z,21.85
2022-11-03T01:43:41.435Z,17.08
2022-11-03T01:44:09.073Z,17.63
2022-11-03T01:44:35.766Z,17.70
2022-11-03T01:44:57.907Z,22.08
2022-11-03T01:45:20.339Z,20.77
2022-11-03T01:45:42.491Z,21.10
2022-11-03T01:46:07.245Z,21.15
2022-11-03T01:46:29.981Z,17.88
2022-11-03T01:47:00.935Z,19.52
2022-11-03T01:47:27.865Z,22.48
2022-11-03T01:47:50.041Z,21.60
2022-11-03T01:48:12.689Z,20.83
2022-11-03T01:48:35.114Z,21.73
2022-11-03T01:49:09.776Z,21.42
2022-11-03T01:49:46.855Z,22.15
2022-11-03T01:50:10.951Z,20.35
2022-11-03T01:50:32.828Z,16.83
2022-11-03T01:50:55.104Z,19.90
2022-11-03T01:51:18.350Z,20.33
2022-11-03T01:51:41.674Z,18.30
2022-11-03T01:52:42.928Z,21.60
2022-11-03T01:53:05.404Z,20.48
2022-11-03T01:53:30.378Z,19.83
2022-11-03T01:53:54.098Z,17.08
2022-11-03T01:54:21.495Z,21.33
2022-11-03T01:54:45.263Z,22.08
2022-11-03T01:55:18.071Z,18.08
2022-11-03T01:55:40.280Z,19.40
2022-11-03T01:56:03.896Z,18.52
2022-11-03T01:56:26.518Z,20.02
2022-11-03T01:56:48.786Z,17.73
2022-11-03T01:57:17.267Z,21.00
2022-11-03T01:57:42.120Z,19.55
2022-11-03T01:58:06.427Z,20.30
2022-11-03T01:58:33.631Z,21.05
2022-11-03T01:58:56.330Z,22.38
2022-11-03T01:59:19.265Z,23.13
2022-11-03T01:59:41.902Z,23.30
2022-11-03T02:00:05.730Z,20.33
2022-11-03T02:00:28.012Z,20.90
2022-11-03T02:00:53.099Z,21.17
2022-11-03T02:01:15.385Z,21.73
2022-11-03T02:01:37.963Z,18.58
2022-11-03T02:02:00.458Z,21.88
2022-11-03T02:02:22.363Z,23.05
2022-11-03T02:02:44.817Z,18.08
2022-11-03T02:03:07.249Z,20.80
2022-11-03T02:03:32.865Z,21.10
2022-11-03T02:03:58.509Z,20.48
2022-11-03T02:04:28.325Z,19.23
2022-11-03T02:04:50.179Z,22.30
2022-11-03T02:05:13.604Z,21.45
2022-11-03T02:05:35.992Z,21.20
2022-11-03T02:05:58.681Z,20.83
2022-11-03T02:06:23.227Z,18.10
2022-11-03T02:06:45.869Z,19.75
2022-11-03T02:07:17.590Z,20.30
2022-11-03T02:07:51.554Z,20.55
2022-11-03T02:08:27.898Z,18.45
2022-11-03T02:08:52.541Z,21.88
2022-11-03T02:09:14.682Z,20.40
2022-11-03T02:09:36.857Z,20.15
2022-11-03T02:09:59.064Z,21.85
2022-11-03T02:10:21.469Z,21.38
2022-11-03T02:10:43.848Z,20.55
2022-11-03T02:11:26.033Z,20.58
2022-11-03T02:12:06.375Z,21.10
2022-11-03T02:12:28.781Z,22.30
2022-11-03T02:12:50.516Z,21.42
2022-11-03T02:13:30.719Z,24.10
2022-11-03T02:13:52.569Z,24.30
2022-11-03T02:14:14.425Z,22.38
2022-11-03T02:14:37.903Z,21.67
2022-11-03T02:15:02.588Z,22.95
2022-11-03T02:15:24.959Z,19.85
2022-11-03T02:15:50.574Z,21.83
2022-11-03T02:16:12.795Z,24.30
2022-11-03T02:16:34.633Z,22.63
2022-11-03T02:16:58.751Z,21.70
2022-11-03T02:17:21.622Z,21.95
2022-11-03T02:17:44.779Z,22.58
2022-11-03T02:18:07.293Z,25.70
2022-11-03T02:18:32.631Z,25.77
2022-11-03T02:18:55.429Z,20.10
2022-11-03T02:19:39.791Z,22.65
2022-11-03T02:20:06.796Z,21.45
2022-11-03T02:20:30.029Z,20.48
2022-11-03T02:21:03.725Z,21.10
2022-11-03T02:21:31.262Z,17.63
2022-11-03T02:22:03.570Z,26.02
2022-11-03T02:22:25.730Z,21.95
2022-11-03T02:23:06.528Z,22.00
2022-11-03T02:23:42.015Z,21.20
2022-11-03T02:24:11.809Z,21.48
2022-11-03T02:24:54.304Z,21.63
2022-11-03T02:25:36.237Z,20.73
2022-11-03T02:25:59.521Z,24.00
2022-11-03T02:26:22.059Z,21.33
2022-11-03T02:26:46.331Z,21.73
2022-11-03T02:27:08.188Z,24.38
2022-11-03T02:27:30.312Z,22.77
2022-11-03T02:27:52.468Z,21.40
2022-11-03T02:28:17.311Z,22.48
2022-11-03T02:28:39.188Z,22.73
2022-11-03T02:29:01.030Z,22.85
2022-11-03T02:29:22.981Z,25.33
2022-11-03T02:29:45.294Z,22.98
2022-11-03T02:30:08.826Z,23.58
2022-11-03T02:30:53.665Z,22.77
2022-11-03T02:31:18.059Z,22.10
2022-11-03T02:31:45.127Z,24.98
2022-11-03T02:32:27.524Z,21.70
2022-11-03T02:32:56.846Z,20.02
2022-11-03T02:33:52.578Z,21.88
2022-11-03T02:34:23.678Z,20.33
2022-11-03T02:34:50.282Z,20.70
2022-11-03T02:35:30.415Z,23.20
2022-11-03T02:36:15.737Z,23.88
2022-11-03T02:36:42.073Z,22.70
2022-11-03T02:37:10.053Z,20.10
2022-11-03T02:37:37.773Z,21.20
2022-11-03T02:38:01.106Z,24.67
2022-11-03T02:38:27.012Z,20.45
2022-11-03T02:39:22.450Z,22.45
2022-11-03T02:39:46.728Z,24.73
2022-11-03T02:40:11.277Z,24.85
2022-11-03T02:40:39.571Z,27.25
2022-11-03T02:41:04.466Z,28.15
2022-11-03T02:41:27.203Z,31.27
2022-11-03T02:41:49.882Z,34.33
2022-11-03T02:42:13.135Z,31.52
2022-11-03T02:42:36.588Z,30.38
2022-11-03T02:42:59.477Z,26.92
2022-11-03T02:43:23.959Z,24.90
2022-11-03T02:43:47.040Z,25.55
2022-11-03T02:44:13.178Z,28.55
2022-11-03T02:44:36.869Z,27.15
2022-11-03T02:45:01.022Z,25.20
2022-11-03T02:45:25.705Z,25.60
2022-11-03T02:45:48.981Z,28.17
2022-11-03T02:46:13.603Z,29.67
2022-11-03T02:46:37.052Z,28.58
2022-11-03T02:47:02.079Z,31.27
2022-11-03T02:47:24.537Z,29.55
2022-11-03T02:47:47.535Z,32.42
2022-11-03T02:48:09.838Z,36.53
2022-11-03T02:48:32.586Z,32.83
2022-11-03T02:48:54.301Z,32.63
2022-11-03T02:49:16.315Z,33.25
2022-11-03T02:49:41.830Z,34.17
2022-11-03T02:50:08.607Z,35.75
2022-11-03T02:50:32.603Z,35.42
2022-11-03T02:50:55.368Z,34.65
2022-11-03T02:51:17.509Z,34.83
2022-11-03T02:51:40.756Z,32.10
2022-11-03T02:52:04.969Z,28.95
2022-11-03T02:52:37.376Z,27.27
2022-11-03T02:52:59.987Z,29.85
2022-11-03T02:53:22.245Z,29.58
2022-11-03T02:53:52.268Z,27.70
2022-11-03T02:54:19.936Z,27.98
2022-11-03T02:54:44.822Z,24.60
2022-11-03T02:55:13.100Z,26.00
2022-11-03T02:55:39.346Z,27.33
2022-11-03T02:56:03.695Z,24.50
2022-11-03T02:56:25.888Z,23.25
2022-11-03T02:56:52.518Z,26.73
2022-11-03T02:57:21.346Z,24.83
2022-11-03T02:57:49.402Z,26.77
2022-11-03T02:58:11.624Z,22.60
2022-11-03T02:58:53.494Z,19.48
2022-11-03T02:59:29.656Z,23.02
2022-11-03T02:59:55.121Z,20.10
2022-11-03T03:00:17.826Z,20.98
2022-11-03T03:00:44.082Z,21.25
2022-11-03T03:01:29.218Z,22.05
2022-11-03T03:01:55.826Z,22.48
2022-11-03T03:02:21.719Z,23.48
2022-11-03T03:02:52.505Z,22.27
2022-11-03T03:03:17.616Z,22.90
2022-11-03T03:03:44.463Z,19.80
2022-11-03T03:04:10.262Z,21.30
2022-11-03T03:04:36.663Z,21.20
2022-11-03T03:05:01.859Z,22.70
2022-11-03T03:05:25.969Z,20.77
2022-11-03T03:05:49.886Z,24.35
2022-11-03T03:06:17.250Z,22.83
2022-11-03T03:06:43.560Z,20.38
2022-11-03T03:07:14.897Z,18.45
2022-11-03T03:07:41.688Z,17.85
2022-11-03T03:08:06.375Z,21.27
2022-11-03T03:08:30.576Z,20.65
2022-11-03T03:08:57.748Z,18.42
2022-11-03T03:09:22.404Z,17.60
2022-11-03T03:09:46.817Z,20.95
2022-11-03T03:10:12.436Z,23.90
2022-11-03T03:10:36.005Z,21.83
2022-11-03T03:11:00.431Z,24.02
2022-11-03T03:11:37.623Z,22.83
2022-11-03T03:12:01.300Z,22.55
2022-11-03T03:12:24.396Z,22.48
2022-11-03T03:12:53.110Z,24.08
2022-11-03T03:13:16.807Z,20.63
2022-11-03T03:13:39.663Z,21.60
2022-11-03T03:14:01.771Z,22.45
2022-11-03T03:14:29.700Z,22.58
2022-11-03T03:14:52.922Z,22.33
2022-11-03T03:15:15.549Z,22.20
2022-11-03T03:15:42.157Z,20.42
2022-11-03T03:16:25.949Z,20.70
2022-11-03T03:17:01.365Z,19.17
2022-11-03T03:17:52.844Z,20.08
2022-11-03T03:18:29.372Z,21.98
2022-11-03T03:19:00.629Z,21.10
2022-11-03T03:19:44.900Z,20.52
2022-11-03T03:20:16.772Z,22.70
2022-11-03T03:20:51.046Z,23.23
2022-11-03T03:21:15.128Z,19.02
2022-11-03T03:21:40.305Z,21.42
2022-11-03T03:22:10.647Z,22.17
2022-11-03T03:22:49.959Z,20.70
2022-11-03T03:23:14.819Z,19.20
2022-11-03T03:23:48.065Z,21.02
2022-11-03T03:24:16.031Z,21.67
2022-11-03T03:24:56.276Z,21.25
2022-11-03T03:25:35.084Z,20.45
2022-11-03T03:26:18.354Z,20.20
2022-11-03T03:26:45.501Z,18.60
2022-11-03T03:27:11.283Z,20.92
2022-11-03T03:27:35.138Z,21.02
2022-11-03T03:28:05.938Z,19.02
2022-11-03T03:28:50.625Z,22.25
2022-11-03T03:29:15.817Z,19.58
2022-11-03T03:29:40.851Z,24.95
2022-11-03T03:30:06.720Z,20.48
2022-11-03T03:30:30.621Z,20.08
2022-11-03T03:30:54.823Z,19.15
2022-11-03T03:31:18.856Z,17.27
2022-11-03T03:31:45.485Z,18.08
2022-11-03T03:32:09.399Z,18.67
2022-11-03T03:32:37.067Z,19.77
2022-11-03T03:33:00.248Z,20.50
2022-11-03T03:33:23.251Z,19.42
2022-11-03T03:33:47.975Z,21.17
2022-11-03T03:34:31.293Z,20.65
2022-11-03T03:34:54.092Z,21.33
2022-11-03T03:35:22.868Z,18.17
2022-11-03T03:35:46.272Z,17.60
2022-11-03T03:36:13.509Z,19.67
2022-11-03T03:36:36.120Z,19.90
2022-11-03T03:36:59.739Z,18.48
2022-11-03T03:37:23.943Z,20.92
2022-11-03T03:37:48.022Z,19.90
2022-11-03T03:38:16.577Z,19.67
2022-11-03T03:38:43.781Z,17.45
2022-11-03T03:39:08.196Z,17.60
2022-11-03T03:39:32.512Z,19.02
2022-11-03T03:39:58.365Z,21.25
2022-11-03T03:40:30.992Z,19.92
2022-11-03T03:40:55.891Z,19.98
2022-11-03T03:41:22.127Z,23.17
2022-11-03T03:41:46.600Z,18.92
2022-11-03T03:42:09.840Z,21.23
2022-11-03T03:42:33.319Z,23.65
2022-11-03T03:42:55.656Z,21.83
2022-11-03T03:43:18.346Z,19.88
2022-11-03T03:43:41.933Z,21.80
2022-11-03T03:44:06.360Z,19.67
2022-11-03T03:44:28.776Z,21.38
2022-11-03T03:44:51.548Z,20.83
2022-11-03T03:45:14.440Z,20.23
2022-11-03T03:45:36.709Z,23.15
2022-11-03T03:46:01.573Z,22.58
2022-11-03T03:46:24.567Z,24.77
2022-11-03T03:46:52.082Z,25.30
2022-11-03T03:47:30.285Z,22.25
2022-11-03T03:47:57.308Z,22.25
2022-11-03T03:48:19.920Z,22.60
2022-11-03T03:48:43.000Z,21.77
2022-11-03T03:49:05.523Z,20.38
2022-11-03T03:49:27.500Z,20.27
2022-11-03T03:49:49.639Z,21.55
2022-11-03T03:50:11.942Z,21.58
2022-11-03T03:50:37.377Z,21.88
2022-11-03T03:51:01.864Z,24.42
2022-11-03T03:51:26.389Z,22.40
2022-11-03T03:51:49.051Z,20.52
2022-11-03T03:52:11.852Z,23.50
2022-11-03T03:52:34.909Z,20.23
2022-11-03T03:53:03.928Z,18.95
2022-11-03T03:53:28.880Z,17.67
2022-11-03T03:53:52.478Z,21.95
2022-11-03T03:54:14.601Z,21.63
2022-11-03T03:54:37.229Z,21.27
2022-11-03T03:54:59.426Z,20.85
2022-11-03T03:55:51.768Z,18.88
2022-11-03T03:56:13.526Z,21.23
2022-11-03T03:56:51.266Z,21.75
2022-11-03T03:57:16.098Z,20.80
2022-11-03T03:57:38.329Z,19.85
2022-11-03T03:58:00.640Z,20.30
2022-11-03T03:58:22.471Z,22.38
2022-11-03T03:58:44.607Z,22.70
2022-11-03T03:59:06.426Z,20.73
2022-11-03T03:59:28.741Z,19.33
2022-11-03T03:59:50.776Z,21.85
2022-11-03T04:00:16.094Z,19.50
2022-11-03T04:00:40.101Z,20.60
2022-11-03T04:01:02.034Z,19.05
2022-11-03T04:01:23.907Z,21.27
2022-11-03T04:01:46.212Z,21.35
2022-11-03T04:02:08.738Z,22.70
2022-11-03T04:02:30.566Z,22.13
2022-11-03T04:02:52.373Z,17.65
2022-11-03T04:03:17.712Z,19.48
2022-11-03T04:03:39.895Z,19.35
2022-11-03T04:04:02.091Z,19.58
2022-11-03T04:04:24.379Z,20.83
2022-11-03T04:04:46.105Z,21.58
2022-11-03T04:05:07.986Z,18.73
2022-11-03T04:05:29.722Z,16.23
2022-11-03T04:05:52.532Z,18.48
2022-11-03T04:06:14.289Z,16.77
2022-11-03T04:06:36.178Z,18.92
2022-11-03T04:07:16.676Z,19.08
2022-11-03T04:07:47.610Z,18.50
2022-11-03T04:08:10.164Z,17.88
2022-11-03T04:08:31.957Z,20.90
2022-11-03T04:08:53.702Z,22.00
2022-11-03T04:09:15.845Z,21.08
2022-11-03T04:09:38.005Z,19.02
2022-11-03T04:10:00.081Z,18.20
2022-11-03T04:10:22.987Z,21.35
2022-11-03T04:11:06.123Z,21.08
2022-11-03T04:11:46.648Z,22.45
2022-11-03T04:12:27.533Z,23.13
2022-11-03T04:13:08.049Z,21.05
2022-11-03T04:13:48.455Z,19.30
2022-11-03T04:14:28.987Z,19.40
2022-11-03T04:15:09.450Z,19.92
2022-11-03T04:15:50.921Z,21.85
2022-11-03T04:16:31.498Z,21.35
2022-11-03T04:17:22.998Z,20.25
2022-11-03T04:18:05.830Z,17.95
2022-11-03T04:18:50.967Z,20.70
2022-11-03T04:19:31.364Z,17.60
2022-11-03T04:20:12.070Z,19.85
2022-11-03T04:20:53.045Z,21.60
2022-11-03T04:21:34.141Z,21.88
2022-11-03T04:22:15.155Z,17.83
2022-11-03T04:22:36.865Z,20.25
2022-11-03T04:22:59.453Z,17.55
2022-11-03T04:23:21.545Z,17.48
2022-11-03T04:23:43.765Z,16.98
2022-11-03T04:24:05.934Z,17.63
2022-11-03T04:24:27.673Z,18.50
2022-11-03T04:24:51.411Z,20.38
2022-11-03T04:25:13.536Z,17.95
2022-11-03T04:25:35.300Z,17.10
2022-11-03T04:25:57.773Z,18.63
2022-11-03T04:26:23.749Z,21.98
2022-11-03T04:26:45.495Z,17.92
2022-11-03T04:27:31.965Z,17.92
2022-11-03T04:27:53.798Z,17.90
2022-11-03T04:28:16.347Z,20.27
2022-11-03T04:28:38.498Z,20.60
2022-11-03T04:29:01.199Z,14.82
2022-11-03T04:29:23.413Z,16.20
2022-11-03T04:29:45.222Z,19.40
2022-11-03T04:30:07.364Z,17.55
2022-11-03T04:30:29.508Z,17.08
2022-11-03T04:30:54.663Z,16.63
2022-11-03T04:31:20.740Z,18.35
2022-11-03T04:31:42.527Z,20.23
2022-11-03T04:32:17.756Z,22.00
2022-11-03T04:32:39.852Z,17.90
2022-11-03T04:33:02.012Z,19.45
2022-11-03T04:33:23.845Z,18.73
2022-11-03T04:33:46.032Z,19.40
2022-11-03T04:34:12.473Z,22.55
2022-11-03T04:34:34.662Z,23.52
2022-11-03T04:34:56.416Z,20.70
2022-11-03T04:35:28.808Z,21.15
2022-11-03T04:35:51.685Z,25.20
2022-11-03T04:36:21.121Z,22.85
2022-11-03T04:36:42.857Z,20.85
2022-11-03T04:37:07.050Z,22.00
2022-11-03T04:37:29.055Z,21.67
2022-11-03T04:38:05.092Z,23.20
2022-11-03T04:38:29.106Z,25.20
2022-11-03T04:38:51.990Z,22.00
2022-11-03T04:39:17.427Z,21.05
2022-11-03T04:39:39.655Z,24.70
2022-11-03T04:40:02.535Z,23.35
2022-11-03T04:40:24.621Z,20.83
2022-11-03T04:40:50.416Z,21.92
2022-11-03T04:41:17.665Z,21.33
2022-11-03T04:41:40.045Z,22.63
2022-11-03T04:42:02.167Z,22.02
2022-11-03T04:42:24.344Z,19.15
2022-11-03T04:42:47.506Z,20.17
2022-11-03T04:43:16.973Z,18.70
2022-11-03T04:43:39.126Z,20.45
2022-11-03T04:44:01.209Z,17.80
2022-11-03T04:44:23.443Z,19.55
2022-11-03T04:44:46.932Z,17.33
2022-11-03T04:45:15.474Z,18.65
2022-11-03T04:45:38.365Z,21.77
2022-11-03T04:46:00.542Z,18.70
2022-11-03T04:46:27.398Z,19.55
2022-11-03T04:46:49.215Z,16.63
2022-11-03T04:47:13.401Z,18.10
2022-11-03T04:47:35.178Z,18.75
2022-11-03T04:47:58.904Z,17.58
2022-11-03T04:48:24.112Z,18.63
2022-11-03T04:48:47.576Z,20.02
2022-11-03T04:49:16.667Z,17.40
2022-11-03T04:49:38.922Z,19.63
2022-11-03T04:50:00.690Z,19.75
2022-11-03T04:50:23.931Z,19.95
2022-11-03T04:50:47.217Z,18.50
2022-11-03T04:51:16.163Z,19.83
2022-11-03T04:51:38.320Z,18.75
2022-11-03T04:52:00.436Z,18.95
2022-11-03T04:52:23.264Z,18.30
2022-11-03T04:52:45.542Z,19.50
2022-11-03T04:53:13.711Z,18.45
2022-11-03T04:53:35.656Z,19.98
2022-11-03T04:53:57.757Z,18.15
2022-11-03T04:54:23.219Z,18.25
2022-11-03T04:54:45.679Z,16.42
2022-11-03T04:55:14.834Z,17.02
2022-11-03T04:55:37.098Z,16.48
2022-11-03T04:56:07.027Z,20.40
2022-11-03T04:56:30.026Z,19.45
2022-11-03T04:56:52.396Z,21.27
2022-11-03T04:57:15.317Z,18.55
2022-11-03T04:57:37.089Z,18.27
2022-11-03T04:58:00.999Z,23.27
2022-11-03T04:58:24.447Z,19.77
2022-11-03T04:58:48.212Z,20.40
2022-11-03T04:59:14.618Z,20.92
2022-11-03T04:59:36.793Z,22.35
2022-11-03T04:59:58.526Z,18.65
2022-11-03T05:00:20.684Z,17.83
2022-11-03T05:00:42.859Z,19.92
2022-11-03T05:01:05.529Z,21.88
2022-11-03T05:01:28.729Z,21.30
2022-11-03T05:01:50.747Z,19.15
2022-11-03T05:02:16.971Z,17.85
2022-11-03T05:02:39.195Z,22.38
2022-11-03T05:03:01.025Z,19.52
2022-11-03T05:03:25.871Z,23.55
2022-11-03T05:03:50.292Z,20.40
2022-11-03T05:04:13.853Z,16.42
2022-11-03T05:04:35.987Z,18.55
2022-11-03T05:04:57.787Z,20.35
2022-11-03T05:05:24.858Z,23.20
2022-11-03T05:05:46.978Z,17.83
2022-11-03T05:06:13.544Z,19.27
2022-11-03T05:06:35.257Z,18.92
2022-11-03T05:06:57.494Z,19.33
2022-11-03T05:07:19.600Z,19.33
2022-11-03T05:07:41.742Z,19.77
2022-11-03T05:08:03.888Z,18.75
2022-11-03T05:08:26.044Z,18.67
2022-11-03T05:08:52.306Z,17.75
2022-11-03T05:09:19.710Z,20.88
2022-11-03T05:09:43.064Z,19.67
2022-11-03T05:10:06.502Z,18.92
2022-11-03T05:10:29.495Z,17.95
2022-11-03T05:10:51.650Z,17.55
2022-11-03T05:11:36.916Z,18.63
2022-11-03T05:11:59.521Z,17.65
2022-11-03T05:12:21.669Z,15.82
2022-11-03T05:12:44.382Z,20.70
2022-11-03T05:13:22.579Z,18.92
2022-11-03T05:13:44.534Z,19.52
2022-11-03T05:14:19.904Z,21.23
2022-11-03T05:14:42.152Z,20.35
2022-11-03T05:15:09.233Z,17.60
2022-11-03T05:15:31.109Z,18.02
2022-11-03T05:16:00.132Z,15.57
2022-11-03T05:16:22.402Z,15.40
2022-11-03T05:16:44.844Z,17.48
2022-11-03T05:17:24.118Z,15.77
2022-11-03T05:17:45.828Z,17.02
2022-11-03T05:18:14.834Z,18.35
2022-11-03T05:18:39.542Z,18.75
2022-11-03T05:19:01.740Z,18.63
2022-11-03T05:19:40.278Z,17.40
2022-11-03T05:20:03.530Z,16.00
2022-11-03T05:20:31.933Z,17.35
2022-11-03T05:21:03.515Z,15.45
2022-11-03T05:21:27.540Z,15.23
2022-11-03T05:21:51.234Z,16.45
2022-11-03T05:22:22.826Z,16.08
2022-11-03T05:22:44.544Z,16.65
2022-11-03T05:23:07.134Z,18.95
2022-11-03T05:23:31.810Z,22.55
2022-11-03T05:24:01.248Z,18.60
2022-11-03T05:24:26.035Z,16.25
2022-11-03T05:24:48.569Z,17.52
2022-11-03T05:25:39.303Z,16.85
2022-11-03T05:26:01.207Z,19.13
2022-11-03T05:26:31.784Z,19.80
2022-11-03T05:26:56.056Z,14.60
2022-11-03T05:27:22.564Z,16.55
2022-11-03T05:27:44.340Z,17.27
2022-11-03T05:28:20.571Z,16.90